sensor_id;sensor_type;location;lat;lon;timestamp;pressure;altitude;pressure_sealevel;temperature
12061;BMP180;6091;51.432;6.880;2023-07-13T00:02:23;100758.00;;;29.50
12061;BMP180;6091;51.432;6.880;2023-07-13T00:04:51;100760.00;;;29.50
12061;BMP180;6091;51.432;6.880;2023-07-13T00:07:19;100757.00;;;29.50
12061;BMP180;6091;51.432;6.880;2023-07-13T00:09:52;100755.00;;;29.50
12061;BMP180;6091;51.432;6.880;2023-07-13T00:12:32;100755.00;;;29.50
12061;BMP180;6091;51.432;6.880;2023-07-13T00:15:25;100762.00;;;29.50
12061;BMP180;6091;51.432;6.880;2023-07-13T00:17:54;100758.00;;;29.50
12061;BMP180;6091;51.432;6.880;2023-07-13T00:20:24;100755.00;;;29.50
12061;BMP180;6091;51.432;6.880;2023-07-13T00:22:53;100759.00;;;29.50
12061;BMP180;6091;51.432;6.880;2023-07-13T00:25:22;100763.00;;;29.50
12061;BMP180;6091;51.432;6.880;2023-07-13T00:27:51;100756.00;;;29.50
12061;BMP180;6091;51.432;6.880;2023-07-13T00:30:18;100762.00;;;29.50
12061;BMP180;6091;51.432;6.880;2023-07-13T00:32:45;100761.00;;;29.40
12061;BMP180;6091;51.432;6.880;2023-07-13T00:35:15;100754.00;;;29.40
12061;BMP180;6091;51.432;6.880;2023-07-13T00:37:42;100761.00;;;29.40
12061;BMP180;6091;51.432;6.880;2023-07-13T00:40:12;100755.00;;;29.40
12061;BMP180;6091;51.432;6.880;2023-07-13T00:42:41;100758.00;;;29.40
12061;BMP180;6091;51.432;6.880;2023-07-13T00:47:57;100765.00;;;29.30
12061;BMP180;6091;51.432;6.880;2023-07-13T00:50:24;100750.00;;;29.30
12061;BMP180;6091;51.432;6.880;2023-07-13T00:52:54;100761.00;;;29.30
12061;BMP180;6091;51.432;6.880;2023-07-13T00:55:24;100757.00;;;29.30
12061;BMP180;6091;51.432;6.880;2023-07-13T00:57:55;100755.00;;;29.30
12061;BMP180;6091;51.432;6.880;2023-07-13T01:00:23;100756.00;;;29.30
12061;BMP180;6091;51.432;6.880;2023-07-13T01:02:56;100753.00;;;29.20
12061;BMP180;6091;51.432;6.880;2023-07-13T01:05:25;100759.00;;;29.20
12061;BMP180;6091;51.432;6.880;2023-07-13T01:07:53;100758.00;;;29.20
12061;BMP180;6091;51.432;6.880;2023-07-13T01:10:26;100752.00;;;29.20
12061;BMP180;6091;51.432;6.880;2023-07-13T01:12:54;100753.00;;;29.20
12061;BMP180;6091;51.432;6.880;2023-07-13T01:15:43;100760.00;;;29.20
12061;BMP180;6091;51.432;6.880;2023-07-13T01:18:25;100763.00;;;29.20
12061;BMP180;6091;51.432;6.880;2023-07-13T01:20:59;100755.00;;;29.20
12061;BMP180;6091;51.432;6.880;2023-07-13T01:23:29;100762.00;;;29.20
12061;BMP180;6091;51.432;6.880;2023-07-13T01:25:58;100756.00;;;29.20
12061;BMP180;6091;51.432;6.880;2023-07-13T01:28:28;100754.00;;;29.20
12061;BMP180;6091;51.432;6.880;2023-07-13T01:30:58;100754.00;;;29.20
12061;BMP180;6091;51.432;6.880;2023-07-13T01:33:26;100750.00;;;29.20
12061;BMP180;6091;51.432;6.880;2023-07-13T01:35:54;100758.00;;;29.20
12061;BMP180;6091;51.432;6.880;2023-07-13T01:38:24;100757.00;;;29.20
12061;BMP180;6091;51.432;6.880;2023-07-13T01:40:53;100758.00;;;29.10
12061;BMP180;6091;51.432;6.880;2023-07-13T01:43:20;100760.00;;;29.10
12061;BMP180;6091;51.432;6.880;2023-07-13T01:45:48;100756.00;;;29.10
12061;BMP180;6091;51.432;6.880;2023-07-13T01:48:15;100754.00;;;29.10
12061;BMP180;6091;51.432;6.880;2023-07-13T01:50:42;100756.00;;;29.10
12061;BMP180;6091;51.432;6.880;2023-07-13T01:53:10;100759.00;;;29.10
12061;BMP180;6091;51.432;6.880;2023-07-13T01:55:37;100757.00;;;29.10
12061;BMP180;6091;51.432;6.880;2023-07-13T01:58:05;100764.00;;;29.10
12061;BMP180;6091;51.432;6.880;2023-07-13T02:00:33;100772.00;;;29.10
12061;BMP180;6091;51.432;6.880;2023-07-13T02:03:00;100772.00;;;29.10
12061;BMP180;6091;51.432;6.880;2023-07-13T02:05:34;100751.00;;;29.10
12061;BMP180;6091;51.432;6.880;2023-07-13T02:08:01;100763.00;;;29.00
12061;BMP180;6091;51.432;6.880;2023-07-13T02:10:28;100768.00;;;29.00
12061;BMP180;6091;51.432;6.880;2023-07-13T02:12:55;100772.00;;;29.00
12061;BMP180;6091;51.432;6.880;2023-07-13T02:15:22;100771.00;;;28.90
12061;BMP180;6091;51.432;6.880;2023-07-13T02:17:49;100764.00;;;28.90
12061;BMP180;6091;51.432;6.880;2023-07-13T02:20:17;100770.00;;;29.00
12061;BMP180;6091;51.432;6.880;2023-07-13T02:22:44;100771.00;;;29.00
12061;BMP180;6091;51.432;6.880;2023-07-13T02:25:11;100758.00;;;29.00
12061;BMP180;6091;51.432;6.880;2023-07-13T02:27:38;100762.00;;;29.00
12061;BMP180;6091;51.432;6.880;2023-07-13T02:30:06;100770.00;;;29.00
12061;BMP180;6091;51.432;6.880;2023-07-13T02:32:33;100773.00;;;29.00
12061;BMP180;6091;51.432;6.880;2023-07-13T02:35:00;100766.00;;;29.00
12061;BMP180;6091;51.432;6.880;2023-07-13T02:37:28;100776.00;;;29.00
12061;BMP180;6091;51.432;6.880;2023-07-13T02:39:55;100774.00;;;29.00
12061;BMP180;6091;51.432;6.880;2023-07-13T02:42:22;100773.00;;;29.00
12061;BMP180;6091;51.432;6.880;2023-07-13T02:44:49;100777.00;;;29.00
12061;BMP180;6091;51.432;6.880;2023-07-13T02:47:17;100785.00;;;28.90
12061;BMP180;6091;51.432;6.880;2023-07-13T02:49:44;100778.00;;;28.90
12061;BMP180;6091;51.432;6.880;2023-07-13T02:52:11;100774.00;;;28.90
12061;BMP180;6091;51.432;6.880;2023-07-13T02:54:38;100779.00;;;28.90
12061;BMP180;6091;51.432;6.880;2023-07-13T02:57:06;100777.00;;;28.80
12061;BMP180;6091;51.432;6.880;2023-07-13T02:59:33;100780.00;;;28.90
12061;BMP180;6091;51.432;6.880;2023-07-13T03:02:02;100789.00;;;28.90
12061;BMP180;6091;51.432;6.880;2023-07-13T03:04:29;100788.00;;;28.90
12061;BMP180;6091;51.432;6.880;2023-07-13T03:06:56;100782.00;;;28.80
12061;BMP180;6091;51.432;6.880;2023-07-13T03:09:25;100792.00;;;28.80
12061;BMP180;6091;51.432;6.880;2023-07-13T03:11:54;100794.00;;;28.80
12061;BMP180;6091;51.432;6.880;2023-07-13T03:14:23;100781.00;;;28.90
12061;BMP180;6091;51.432;6.880;2023-07-13T03:16:50;100783.00;;;28.90
12061;BMP180;6091;51.432;6.880;2023-07-13T03:19:19;100786.00;;;28.90
12061;BMP180;6091;51.432;6.880;2023-07-13T03:21:46;100784.00;;;28.90
12061;BMP180;6091;51.432;6.880;2023-07-13T03:24:13;100784.00;;;28.90
12061;BMP180;6091;51.432;6.880;2023-07-13T03:26:40;100785.00;;;28.90
12061;BMP180;6091;51.432;6.880;2023-07-13T03:29:07;100789.00;;;28.90
12061;BMP180;6091;51.432;6.880;2023-07-13T03:31:36;100798.00;;;28.90
12061;BMP180;6091;51.432;6.880;2023-07-13T03:34:03;100801.00;;;28.90
12061;BMP180;6091;51.432;6.880;2023-07-13T03:36:32;100801.00;;;28.90
12061;BMP180;6091;51.432;6.880;2023-07-13T03:39:03;100790.00;;;28.90
12061;BMP180;6091;51.432;6.880;2023-07-13T03:41:30;100803.00;;;28.90
12061;BMP180;6091;51.432;6.880;2023-07-13T03:43:58;100809.00;;;28.90
12061;BMP180;6091;51.432;6.880;2023-07-13T03:46:25;100817.00;;;28.90
12061;BMP180;6091;51.432;6.880;2023-07-13T03:48:54;100819.00;;;28.90
12061;BMP180;6091;51.432;6.880;2023-07-13T03:51:21;100811.00;;;28.80
12061;BMP180;6091;51.432;6.880;2023-07-13T03:53:48;100816.00;;;28.80
12061;BMP180;6091;51.432;6.880;2023-07-13T03:56:18;100819.00;;;28.90
12061;BMP180;6091;51.432;6.880;2023-07-13T03:58:48;100821.00;;;28.80
12061;BMP180;6091;51.432;6.880;2023-07-13T04:01:19;100812.00;;;28.90
12061;BMP180;6091;51.432;6.880;2023-07-13T04:03:46;100821.00;;;28.90
12061;BMP180;6091;51.432;6.880;2023-07-13T04:06:26;100825.00;;;28.90
12061;BMP180;6091;51.432;6.880;2023-07-13T04:08:56;100828.00;;;28.90
12061;BMP180;6091;51.432;6.880;2023-07-13T04:11:27;100825.00;;;28.90
12061;BMP180;6091;51.432;6.880;2023-07-13T04:13:55;100830.00;;;28.90
12061;BMP180;6091;51.432;6.880;2023-07-13T04:16:22;100835.00;;;28.90
12061;BMP180;6091;51.432;6.880;2023-07-13T04:18:51;100843.00;;;28.90
12061;BMP180;6091;51.432;6.880;2023-07-13T04:21:22;100844.00;;;28.90
12061;BMP180;6091;51.432;6.880;2023-07-13T04:23:49;100836.00;;;28.80
12061;BMP180;6091;51.432;6.880;2023-07-13T04:26:16;100832.00;;;28.90
12061;BMP180;6091;51.432;6.880;2023-07-13T04:28:43;100846.00;;;28.80
12061;BMP180;6091;51.432;6.880;2023-07-13T04:31:10;100838.00;;;28.80
12061;BMP180;6091;51.432;6.880;2023-07-13T04:33:37;100845.00;;;28.80
12061;BMP180;6091;51.432;6.880;2023-07-13T04:36:05;100844.00;;;28.80
12061;BMP180;6091;51.432;6.880;2023-07-13T04:38:32;100850.00;;;28.80
12061;BMP180;6091;51.432;6.880;2023-07-13T04:41:03;100844.00;;;28.80
12061;BMP180;6091;51.432;6.880;2023-07-13T04:43:32;100847.00;;;28.80
12061;BMP180;6091;51.432;6.880;2023-07-13T04:46:12;100844.00;;;28.70
12061;BMP180;6091;51.432;6.880;2023-07-13T04:48:40;100846.00;;;28.70
12061;BMP180;6091;51.432;6.880;2023-07-13T04:51:07;100844.00;;;28.70
12061;BMP180;6091;51.432;6.880;2023-07-13T04:53:34;100844.00;;;28.70
12061;BMP180;6091;51.432;6.880;2023-07-13T04:56:03;100836.00;;;28.70
12061;BMP180;6091;51.432;6.880;2023-07-13T04:58:32;100835.00;;;28.70
12061;BMP180;6091;51.432;6.880;2023-07-13T05:01:05;100847.00;;;28.80
12061;BMP180;6091;51.432;6.880;2023-07-13T05:03:33;100854.00;;;28.70
12061;BMP180;6091;51.432;6.880;2023-07-13T05:06:05;100856.00;;;28.80
12061;BMP180;6091;51.432;6.880;2023-07-13T05:08:33;100853.00;;;28.80
12061;BMP180;6091;51.432;6.880;2023-07-13T05:11:02;100852.00;;;28.80
12061;BMP180;6091;51.432;6.880;2023-07-13T05:13:30;100854.00;;;28.80
12061;BMP180;6091;51.432;6.880;2023-07-13T05:16:00;100859.00;;;28.80
12061;BMP180;6091;51.432;6.880;2023-07-13T05:18:29;100861.00;;;28.80
12061;BMP180;6091;51.432;6.880;2023-07-13T05:21:04;100866.00;;;28.80
12061;BMP180;6091;51.432;6.880;2023-07-13T05:23:34;100865.00;;;28.80
12061;BMP180;6091;51.432;6.880;2023-07-13T05:26:03;100870.00;;;28.80
12061;BMP180;6091;51.432;6.880;2023-07-13T05:28:35;100875.00;;;28.80
12061;BMP180;6091;51.432;6.880;2023-07-13T05:31:02;100878.00;;;28.80
12061;BMP180;6091;51.432;6.880;2023-07-13T05:33:30;100880.00;;;28.80
12061;BMP180;6091;51.432;6.880;2023-07-13T05:35:57;100870.00;;;28.80
12061;BMP180;6091;51.432;6.880;2023-07-13T05:38:24;100878.00;;;28.80
12061;BMP180;6091;51.432;6.880;2023-07-13T05:40:53;100886.00;;;28.80
12061;BMP180;6091;51.432;6.880;2023-07-13T05:43:22;100885.00;;;28.80
12061;BMP180;6091;51.432;6.880;2023-07-13T05:45:53;100891.00;;;28.80
12061;BMP180;6091;51.432;6.880;2023-07-13T05:48:20;100890.00;;;28.80
12061;BMP180;6091;51.432;6.880;2023-07-13T05:50:48;100883.00;;;28.80
12061;BMP180;6091;51.432;6.880;2023-07-13T05:53:15;100902.00;;;28.80
12061;BMP180;6091;51.432;6.880;2023-07-13T05:55:44;100897.00;;;28.80
12061;BMP180;6091;51.432;6.880;2023-07-13T05:58:14;100904.00;;;28.70
12061;BMP180;6091;51.432;6.880;2023-07-13T06:00:43;100903.00;;;28.60
12061;BMP180;6091;51.432;6.880;2023-07-13T06:03:10;100902.00;;;28.60
12061;BMP180;6091;51.432;6.880;2023-07-13T06:05:38;100900.00;;;28.50
12061;BMP180;6091;51.432;6.880;2023-07-13T06:08:08;100904.00;;;28.50
12061;BMP180;6091;51.432;6.880;2023-07-13T06:10:36;100905.00;;;28.40
12061;BMP180;6091;51.432;6.880;2023-07-13T06:13:03;100904.00;;;28.30
12061;BMP180;6091;51.432;6.880;2023-07-13T06:15:30;100904.00;;;28.20
12061;BMP180;6091;51.432;6.880;2023-07-13T06:17:58;100903.00;;;28.10
12061;BMP180;6091;51.432;6.880;2023-07-13T06:20:25;100911.00;;;28.10
12061;BMP180;6091;51.432;6.880;2023-07-13T06:22:52;100909.00;;;28.00
12061;BMP180;6091;51.432;6.880;2023-07-13T06:25:19;100910.00;;;28.00
12061;BMP180;6091;51.432;6.880;2023-07-13T06:27:46;100914.00;;;27.90
12061;BMP180;6091;51.432;6.880;2023-07-13T06:30:13;100913.00;;;27.90
12061;BMP180;6091;51.432;6.880;2023-07-13T06:32:40;100916.00;;;27.90
12061;BMP180;6091;51.432;6.880;2023-07-13T06:35:08;100918.00;;;27.80
12061;BMP180;6091;51.432;6.880;2023-07-13T06:37:35;100916.00;;;27.80
12061;BMP180;6091;51.432;6.880;2023-07-13T06:40:03;100927.00;;;27.70
12061;BMP180;6091;51.432;6.880;2023-07-13T06:42:30;100916.00;;;27.70
12061;BMP180;6091;51.432;6.880;2023-07-13T06:44:57;100920.00;;;27.70
12061;BMP180;6091;51.432;6.880;2023-07-13T06:47:24;100925.00;;;27.70
12061;BMP180;6091;51.432;6.880;2023-07-13T06:49:51;100921.00;;;27.70
12061;BMP180;6091;51.432;6.880;2023-07-13T06:52:18;100921.00;;;27.70
12061;BMP180;6091;51.432;6.880;2023-07-13T06:54:45;100918.00;;;27.70
12061;BMP180;6091;51.432;6.880;2023-07-13T06:57:12;100926.00;;;27.70
12061;BMP180;6091;51.432;6.880;2023-07-13T06:59:40;100929.00;;;27.70
12061;BMP180;6091;51.432;6.880;2023-07-13T07:02:10;100936.00;;;27.70
12061;BMP180;6091;51.432;6.880;2023-07-13T07:04:37;100939.00;;;27.70
12061;BMP180;6091;51.432;6.880;2023-07-13T07:07:04;100941.00;;;27.70
12061;BMP180;6091;51.432;6.880;2023-07-13T07:09:31;100937.00;;;27.70
12061;BMP180;6091;51.432;6.880;2023-07-13T07:11:58;100935.00;;;27.70
12061;BMP180;6091;51.432;6.880;2023-07-13T07:14:31;100951.00;;;27.70
12061;BMP180;6091;51.432;6.880;2023-07-13T07:16:58;100952.00;;;27.70
12061;BMP180;6091;51.432;6.880;2023-07-13T07:19:30;100950.00;;;27.80
12061;BMP180;6091;51.432;6.880;2023-07-13T07:21:57;100949.00;;;27.80
12061;BMP180;6091;51.432;6.880;2023-07-13T07:24:24;100956.00;;;27.80
12061;BMP180;6091;51.432;6.880;2023-07-13T07:26:51;100955.00;;;27.80
12061;BMP180;6091;51.432;6.880;2023-07-13T07:29:22;100951.00;;;27.80
12061;BMP180;6091;51.432;6.880;2023-07-13T07:31:54;100956.00;;;27.80
12061;BMP180;6091;51.432;6.880;2023-07-13T07:34:42;100948.00;;;27.90
12061;BMP180;6091;51.432;6.880;2023-07-13T07:37:15;100947.00;;;27.90
12061;BMP180;6091;51.432;6.880;2023-07-13T07:39:45;100947.00;;;27.90
12061;BMP180;6091;51.432;6.880;2023-07-13T07:42:32;100948.00;;;27.90
12061;BMP180;6091;51.432;6.880;2023-07-13T07:45:00;100945.00;;;27.90
12061;BMP180;6091;51.432;6.880;2023-07-13T07:47:28;100957.00;;;27.90
12061;BMP180;6091;51.432;6.880;2023-07-13T07:49:55;100950.00;;;28.00
12061;BMP180;6091;51.432;6.880;2023-07-13T07:52:22;100946.00;;;28.00
12061;BMP180;6091;51.432;6.880;2023-07-13T07:54:49;100956.00;;;28.00
12061;BMP180;6091;51.432;6.880;2023-07-13T07:57:19;100947.00;;;28.00
12061;BMP180;6091;51.432;6.880;2023-07-13T08:00:07;100958.00;;;28.00
12061;BMP180;6091;51.432;6.880;2023-07-13T08:02:37;100958.00;;;28.00
12061;BMP180;6091;51.432;6.880;2023-07-13T08:05:11;100958.00;;;28.00
12061;BMP180;6091;51.432;6.880;2023-07-13T08:07:41;100957.00;;;28.00
12061;BMP180;6091;51.432;6.880;2023-07-13T08:10:08;100960.00;;;28.00
12061;BMP180;6091;51.432;6.880;2023-07-13T08:12:37;100960.00;;;28.00
12061;BMP180;6091;51.432;6.880;2023-07-13T08:15:13;100953.00;;;28.00
12061;BMP180;6091;51.432;6.880;2023-07-13T08:17:41;100952.00;;;28.00
12061;BMP180;6091;51.432;6.880;2023-07-13T08:20:09;100941.00;;;28.00
12061;BMP180;6091;51.432;6.880;2023-07-13T08:22:36;100945.00;;;28.00
12061;BMP180;6091;51.432;6.880;2023-07-13T08:25:03;100946.00;;;28.00
12061;BMP180;6091;51.432;6.880;2023-07-13T08:27:31;100949.00;;;28.00
12061;BMP180;6091;51.432;6.880;2023-07-13T08:29:58;100952.00;;;28.00
12061;BMP180;6091;51.432;6.880;2023-07-13T08:32:25;100943.00;;;28.10
12061;BMP180;6091;51.432;6.880;2023-07-13T08:34:52;100945.00;;;28.10
12061;BMP180;6091;51.432;6.880;2023-07-13T08:37:20;100937.00;;;28.10
12061;BMP180;6091;51.432;6.880;2023-07-13T08:39:47;100945.00;;;28.10
12061;BMP180;6091;51.432;6.880;2023-07-13T08:42:37;100940.00;;;28.10
12061;BMP180;6091;51.432;6.880;2023-07-13T08:48:02;100940.00;;;28.20
12061;BMP180;6091;51.432;6.880;2023-07-13T08:50:42;100929.00;;;28.20
12061;BMP180;6091;51.432;6.880;2023-07-13T08:53:37;100940.00;;;28.20
12061;BMP180;6091;51.432;6.880;2023-07-13T08:56:22;100936.00;;;28.20
12061;BMP180;6091;51.432;6.880;2023-07-13T08:58:56;100938.00;;;28.20
12061;BMP180;6091;51.432;6.880;2023-07-13T09:05:09;100932.00;;;28.20
12061;BMP180;6091;51.432;6.880;2023-07-13T09:08:00;100947.00;;;28.20
12061;BMP180;6091;51.432;6.880;2023-07-13T09:10:45;100942.00;;;28.20
12061;BMP180;6091;51.432;6.880;2023-07-13T09:13:40;100934.00;;;28.30
12061;BMP180;6091;51.432;6.880;2023-07-13T09:16:11;100941.00;;;28.30
12061;BMP180;6091;51.432;6.880;2023-07-13T09:18:45;100945.00;;;28.30
12061;BMP180;6091;51.432;6.880;2023-07-13T09:21:39;100950.00;;;28.30
12061;BMP180;6091;51.432;6.880;2023-07-13T09:24:29;100948.00;;;28.40
12061;BMP180;6091;51.432;6.880;2023-07-13T09:26:58;100945.00;;;28.40
12061;BMP180;6091;51.432;6.880;2023-07-13T09:29:33;100944.00;;;28.40
12061;BMP180;6091;51.432;6.880;2023-07-13T09:32:07;100957.00;;;28.40
12061;BMP180;6091;51.432;6.880;2023-07-13T09:34:37;100947.00;;;28.40
12061;BMP180;6091;51.432;6.880;2023-07-13T09:37:04;100952.00;;;28.40
12061;BMP180;6091;51.432;6.880;2023-07-13T09:39:42;100953.00;;;28.50
12061;BMP180;6091;51.432;6.880;2023-07-13T09:42:17;100956.00;;;28.40
12061;BMP180;6091;51.432;6.880;2023-07-13T09:47:28;100956.00;;;28.40
12061;BMP180;6091;51.432;6.880;2023-07-13T09:50:03;100941.00;;;28.40
12061;BMP180;6091;51.432;6.880;2023-07-13T09:52:46;100948.00;;;28.40
12061;BMP180;6091;51.432;6.880;2023-07-13T09:55:37;100956.00;;;28.50
12061;BMP180;6091;51.432;6.880;2023-07-13T09:58:30;100959.00;;;28.50
12061;BMP180;6091;51.432;6.880;2023-07-13T10:01:04;100940.00;;;28.60
12061;BMP180;6091;51.432;6.880;2023-07-13T10:03:36;100941.00;;;28.60
12061;BMP180;6091;51.432;6.880;2023-07-13T10:06:18;100955.00;;;28.60
12061;BMP180;6091;51.432;6.880;2023-07-13T10:08:47;100956.00;;;28.60
12061;BMP180;6091;51.432;6.880;2023-07-13T10:11:30;100965.00;;;28.60
12061;BMP180;6091;51.432;6.880;2023-07-13T10:14:01;100964.00;;;28.60
12061;BMP180;6091;51.432;6.880;2023-07-13T10:16:33;100968.00;;;28.60
12061;BMP180;6091;51.432;6.880;2023-07-13T10:19:19;100964.00;;;28.60
12061;BMP180;6091;51.432;6.880;2023-07-13T10:21:57;100970.00;;;28.60
12061;BMP180;6091;51.432;6.880;2023-07-13T10:24:35;100973.00;;;28.70
12061;BMP180;6091;51.432;6.880;2023-07-13T10:27:17;100971.00;;;28.70
12061;BMP180;6091;51.432;6.880;2023-07-13T10:32:47;100968.00;;;28.70
12061;BMP180;6091;51.432;6.880;2023-07-13T10:35:17;100975.00;;;28.80
12061;BMP180;6091;51.432;6.880;2023-07-13T10:37:57;100974.00;;;28.80
12061;BMP180;6091;51.432;6.880;2023-07-13T10:40:35;100972.00;;;28.80
12061;BMP180;6091;51.432;6.880;2023-07-13T10:43:16;100977.00;;;28.80
12061;BMP180;6091;51.432;6.880;2023-07-13T10:45:47;100974.00;;;28.80
12061;BMP180;6091;51.432;6.880;2023-07-13T10:48:18;100970.00;;;28.80
12061;BMP180;6091;51.432;6.880;2023-07-13T10:50:50;100967.00;;;28.90
12061;BMP180;6091;51.432;6.880;2023-07-13T10:53:36;100965.00;;;29.00
12061;BMP180;6091;51.432;6.880;2023-07-13T10:56:06;100975.00;;;29.20
12061;BMP180;6091;51.432;6.880;2023-07-13T10:58:43;100977.00;;;29.40
12061;BMP180;6091;51.432;6.880;2023-07-13T11:01:16;100974.00;;;29.40
12061;BMP180;6091;51.432;6.880;2023-07-13T11:03:55;100975.00;;;29.40
12061;BMP180;6091;51.432;6.880;2023-07-13T11:09:34;100983.00;;;29.40
12061;BMP180;6091;51.432;6.880;2023-07-13T11:17:47;100975.00;;;29.40
12061;BMP180;6091;51.432;6.880;2023-07-13T11:25:39;100972.00;;;29.50
12061;BMP180;6091;51.432;6.880;2023-07-13T11:30:43;100962.00;;;29.70
12061;BMP180;6091;51.432;6.880;2023-07-13T11:33:28;100968.00;;;29.70
12061;BMP180;6091;51.432;6.880;2023-07-13T11:36:13;100963.00;;;29.80
12061;BMP180;6091;51.432;6.880;2023-07-13T11:39:04;100955.00;;;29.90
12061;BMP180;6091;51.432;6.880;2023-07-13T11:41:43;100965.00;;;30.00
12061;BMP180;6091;51.432;6.880;2023-07-13T11:44:19;100962.00;;;30.10
12061;BMP180;6091;51.432;6.880;2023-07-13T11:46:56;100959.00;;;30.20
12061;BMP180;6091;51.432;6.880;2023-07-13T11:49:31;100954.00;;;30.30
12061;BMP180;6091;51.432;6.880;2023-07-13T11:52:00;100948.00;;;30.40
12061;BMP180;6091;51.432;6.880;2023-07-13T11:54:48;100954.00;;;30.50
12061;BMP180;6091;51.432;6.880;2023-07-13T11:57:47;100951.00;;;30.50
12061;BMP180;6091;51.432;6.880;2023-07-13T12:00:25;100953.00;;;30.60
12061;BMP180;6091;51.432;6.880;2023-07-13T12:02:57;100946.00;;;30.70
12061;BMP180;6091;51.432;6.880;2023-07-13T12:05:26;100945.00;;;30.80
12061;BMP180;6091;51.432;6.880;2023-07-13T12:07:54;100949.00;;;30.90
12061;BMP180;6091;51.432;6.880;2023-07-13T12:10:30;100955.00;;;30.90
12061;BMP180;6091;51.432;6.880;2023-07-13T12:13:05;100958.00;;;31.00
12061;BMP180;6091;51.432;6.880;2023-07-13T12:15:46;100955.00;;;30.90
12061;BMP180;6091;51.432;6.880;2023-07-13T12:18:31;100943.00;;;30.90
12061;BMP180;6091;51.432;6.880;2023-07-13T12:20:59;100948.00;;;30.90
12061;BMP180;6091;51.432;6.880;2023-07-13T12:23:34;100940.00;;;31.00
12061;BMP180;6091;51.432;6.880;2023-07-13T12:26:05;100947.00;;;31.10
12061;BMP180;6091;51.432;6.880;2023-07-13T12:28:43;100939.00;;;31.20
12061;BMP180;6091;51.432;6.880;2023-07-13T12:34:18;100936.00;;;31.60
12061;BMP180;6091;51.432;6.880;2023-07-13T12:36:59;100955.00;;;31.70
12061;BMP180;6091;51.432;6.880;2023-07-13T12:39:34;100953.00;;;31.80
12061;BMP180;6091;51.432;6.880;2023-07-13T12:42:25;100949.00;;;31.80
12061;BMP180;6091;51.432;6.880;2023-07-13T12:45:26;100958.00;;;31.70
12061;BMP180;6091;51.432;6.880;2023-07-13T12:48:04;100954.00;;;31.70
12061;BMP180;6091;51.432;6.880;2023-07-13T12:50:43;100944.00;;;31.60
12061;BMP180;6091;51.432;6.880;2023-07-13T12:53:17;100960.00;;;31.40
12061;BMP180;6091;51.432;6.880;2023-07-13T12:56:02;100952.00;;;31.30
12061;BMP180;6091;51.432;6.880;2023-07-13T12:58:41;100963.00;;;31.20
12061;BMP180;6091;51.432;6.880;2023-07-13T13:01:13;100961.00;;;31.10
12061;BMP180;6091;51.432;6.880;2023-07-13T13:03:48;100969.00;;;30.90
12061;BMP180;6091;51.432;6.880;2023-07-13T13:06:28;100967.00;;;30.80
12061;BMP180;6091;51.432;6.880;2023-07-13T13:08:58;100969.00;;;30.70
12061;BMP180;6091;51.432;6.880;2023-07-13T13:11:28;100981.00;;;30.60
12061;BMP180;6091;51.432;6.880;2023-07-13T13:13:55;100980.00;;;30.50
12061;BMP180;6091;51.432;6.880;2023-07-13T13:19:00;100983.00;;;30.30
12061;BMP180;6091;51.432;6.880;2023-07-13T13:21:31;100984.00;;;30.20
12061;BMP180;6091;51.432;6.880;2023-07-13T13:23:59;100979.00;;;30.20
12061;BMP180;6091;51.432;6.880;2023-07-13T13:26:26;100982.00;;;30.20
12061;BMP180;6091;51.432;6.880;2023-07-13T13:28:53;100968.00;;;30.20
12061;BMP180;6091;51.432;6.880;2023-07-13T13:31:20;100973.00;;;30.20
12061;BMP180;6091;51.432;6.880;2023-07-13T13:33:47;100966.00;;;30.30
12061;BMP180;6091;51.432;6.880;2023-07-13T13:36:22;100962.00;;;30.40
12061;BMP180;6091;51.432;6.880;2023-07-13T13:38:50;100963.00;;;30.60
12061;BMP180;6091;51.432;6.880;2023-07-13T13:41:17;100961.00;;;30.70
12061;BMP180;6091;51.432;6.880;2023-07-13T13:43:44;100965.00;;;30.80
12061;BMP180;6091;51.432;6.880;2023-07-13T13:46:19;100962.00;;;30.90
12061;BMP180;6091;51.432;6.880;2023-07-13T13:48:48;100963.00;;;31.00
12061;BMP180;6091;51.432;6.880;2023-07-13T13:51:21;100959.00;;;31.00
12061;BMP180;6091;51.432;6.880;2023-07-13T13:53:49;100972.00;;;31.00
12061;BMP180;6091;51.432;6.880;2023-07-13T13:56:19;100968.00;;;31.00
12061;BMP180;6091;51.432;6.880;2023-07-13T13:58:46;100984.00;;;30.90
12061;BMP180;6091;51.432;6.880;2023-07-13T14:01:19;100978.00;;;30.90
12061;BMP180;6091;51.432;6.880;2023-07-13T14:03:47;100988.00;;;30.80
12061;BMP180;6091;51.432;6.880;2023-07-13T14:06:18;100991.00;;;30.70
12061;BMP180;6091;51.432;6.880;2023-07-13T14:08:46;100978.00;;;30.70
12061;BMP180;6091;51.432;6.880;2023-07-13T14:11:21;100987.00;;;30.70
12061;BMP180;6091;51.432;6.880;2023-07-13T14:13:56;100987.00;;;30.60
12061;BMP180;6091;51.432;6.880;2023-07-13T14:16:30;100986.00;;;30.60
12061;BMP180;6091;51.432;6.880;2023-07-13T14:18:59;100999.00;;;30.60
12061;BMP180;6091;51.432;6.880;2023-07-13T14:21:29;101003.00;;;30.50
12061;BMP180;6091;51.432;6.880;2023-07-13T14:23:56;101003.00;;;30.50
12061;BMP180;6091;51.432;6.880;2023-07-13T14:26:26;101011.00;;;30.40
12061;BMP180;6091;51.432;6.880;2023-07-13T14:28:56;101006.00;;;30.40
12061;BMP180;6091;51.432;6.880;2023-07-13T14:31:26;101016.00;;;30.30
12061;BMP180;6091;51.432;6.880;2023-07-13T14:33:57;101009.00;;;30.30
12061;BMP180;6091;51.432;6.880;2023-07-13T14:36:47;101012.00;;;30.30
12061;BMP180;6091;51.432;6.880;2023-07-13T14:39:21;101010.00;;;30.20
12061;BMP180;6091;51.432;6.880;2023-07-13T14:41:54;101001.00;;;30.20
12061;BMP180;6091;51.432;6.880;2023-07-13T14:44:28;100995.00;;;30.20
12061;BMP180;6091;51.432;6.880;2023-07-13T14:47:02;101000.00;;;30.20
12061;BMP180;6091;51.432;6.880;2023-07-13T14:49:40;100981.00;;;30.20
12061;BMP180;6091;51.432;6.880;2023-07-13T14:52:33;100981.00;;;30.20
12061;BMP180;6091;51.432;6.880;2023-07-13T14:55:00;100991.00;;;30.20
12061;BMP180;6091;51.432;6.880;2023-07-13T14:57:28;100990.00;;;30.30
12061;BMP180;6091;51.432;6.880;2023-07-13T14:59:55;100988.00;;;30.30
12061;BMP180;6091;51.432;6.880;2023-07-13T15:02:51;100987.00;;;30.30
12061;BMP180;6091;51.432;6.880;2023-07-13T15:05:23;100980.00;;;30.40
12061;BMP180;6091;51.432;6.880;2023-07-13T15:07:53;100987.00;;;30.40
12061;BMP180;6091;51.432;6.880;2023-07-13T15:10:25;100983.00;;;30.40
12061;BMP180;6091;51.432;6.880;2023-07-13T15:12:56;100994.00;;;30.30